If you wish to contribute or participate in the discussions about articles you are invited to join SKYbrary as a registered user

 Actions

Cibao International Airport

From SKYbrary Wiki

MDST
Airport
ICAO: MDST – IATA: STI
Summary
Name Cibao International Airport
Region South America and Caribbean
Territory Dominican Republic DO.gif
Location Santiago de los Caballeros, Dominican Republic
Serving Santiago de los Caballeros
Elevation 172.212 m
565 ft172.212 m
Coordinates 19° 24' 7.68" N, 70° 36' 6.87" W
Runways
Designator Length Width Surface ROPS
11/29 2620 m8,595.801 ft
45 m147.638 ft
ASP yes/yes


METAR
Observation MDST 180100Z 11013KT 9999 BKN018 SCT300 27/24 Q1018
Station Santiago
Date/Time 18 June 2019 01:00:00
Wind direction 110°
Wind speed 13 kts
Lowest cloud amount broken clouds
Temperature 27°C
Dew point 24°C
Humidity 83%
QNH 1018 hPa
Weather condition n/a

WX
Tag(s) Tropical Revolving Storm

Cibao International Airport, also known as Santiago Airport, is located in Santiago de los Caballeros, Dominican Republic's second-largest city

Climatology

Tropical savannah climate (Köppen climate classification Aw)

Maps

Terrain

Loading map...

Airport Layout

Loading map...


Accidents & Serious Incidents at or in vicinity of MDST

None on SKYbrary